Time;durP1;ratioP1;P1;durP2;ratioP2;P2;SDS_P1;SDS_P2;PMS_P1;PMS_P2;Temp;Humidity;BMP_temperature;BMP_pressure;BME280_temperature;BME280_humidity;BME280_pressure;Samples;Min_cycle;Max_cycle;Signal;HPM_P1;HPM_P2
2021/07/19 00:00:22;;;;;;;12.73;5.88;;;16.10;99.90;;;;;;4897120;28;20025;-72
2021/07/19 00:02:49;;;;;;;7.95;5.55;;;16.10;99.90;;;;;;4897236;29;20419;-72
2021/07/19 00:05:16;;;;;;;9.77;5.93;;;16.00;99.90;;;;;;4896270;28;20542;-72
2021/07/19 00:07:42;;;;;;;6.47;5.65;;;16.00;99.90;;;;;;4897295;28;20036;-78
2021/07/19 00:10:11;;;;;;;8.98;5.63;;;16.00;99.90;;;;;;4961189;28;20057;-72
2021/07/19 00:12:37;;;;;;;8.43;5.47;;;16.00;99.90;;;;;;4897057;29;20031;-73
2021/07/19 00:15:05;;;;;;;8.45;5.63;;;16.00;99.90;;;;;;4897252;29;20029;-72
2021/07/19 00:17:31;;;;;;;8.38;6.28;;;15.90;99.90;;;;;;4896112;29;20032;-72
2021/07/19 00:19:57;;;;;;;13.18;7.90;;;15.90;99.90;;;;;;4896931;28;20083;-72
2021/07/19 00:22:22;;;;;;;9.40;6.13;;;15.90;99.90;;;;;;4896604;29;20474;-71
2021/07/19 00:24:48;;;;;;;6.75;5.18;;;15.90;99.90;;;;;;4883913;29;20091;-71
2021/07/19 00:27:14;;;;;;;8.43;5.97;;;15.90;99.90;;;;;;4895837;29;20059;-71
2021/07/19 00:29:40;;;;;;;14.80;7.93;;;15.90;99.90;;;;;;4890134;29;20029;-71
2021/07/19 00:32:07;;;;;;;9.88;6.63;;;15.80;99.90;;;;;;4941802;29;20390;-71
2021/07/19 00:34:32;;;;;;;10.45;6.13;;;15.80;99.90;;;;;;4942141;29;20036;-72
2021/07/19 00:36:58;;;;;;;11.68;6.60;;;15.80;99.90;;;;;;4953673;28;20044;-71
2021/07/19 00:39:24;;;;;;;11.95;6.35;;;15.80;99.90;;;;;;4941440;29;20031;-71
2021/07/19 00:41:51;;;;;;;11.02;6.40;;;15.80;99.90;;;;;;4941915;29;20116;-71
2021/07/19 00:44:20;;;;;;;11.23;6.32;;;15.70;99.90;;;;;;4877526;28;20025;-77
2021/07/19 00:46:47;;;;;;;9.93;6.30;;;15.70;99.90;;;;;;4877058;29;20021;-72
2021/07/19 00:49:13;;;;;;;10.05;5.88;;;15.70;99.90;;;;;;4877354;28;20029;-72
2021/07/19 00:51:41;;;;;;;9.38;6.00;;;15.70;99.90;;;;;;4941707;29;20061;-73
2021/07/19 00:54:09;;;;;;;10.90;6.63;;;15.70;99.90;;;;;;4876604;28;20076;-71
2021/07/19 00:56:37;;;;;;;8.60;6.40;;;15.70;99.90;;;;;;4942000;29;20397;-71
2021/07/19 00:59:03;;;;;;;10.05;6.65;;;15.70;99.90;;;;;;4942006;29;20029;-72
2021/07/19 01:01:31;;;;;;;9.40;7.18;;;15.60;99.90;;;;;;4876918;28;20505;-72
2021/07/19 01:03:59;;;;;;;8.23;6.35;;;15.60;99.90;;;;;;4941994;29;20071;-72
2021/07/19 01:06:28;;;;;;;8.70;6.22;;;15.60;99.90;;;;;;4876848;29;20105;-72
2021/07/19 01:08:56;;;;;;;8.77;6.10;;;15.60;99.90;;;;;;4877574;28;20033;-72
2021/07/19 01:11:22;;;;;;;8.90;6.10;;;15.50;99.90;;;;;;4941539;29;20029;-72
2021/07/19 01:13:47;;;;;;;12.30;6.75;;;15.50;99.90;;;;;;4876862;28;20079;-71
2021/07/19 01:16:15;;;;;;;10.77;6.65;;;15.40;99.90;;;;;;4941122;29;20080;-72
2021/07/19 01:18:41;;;;;;;10.68;6.80;;;15.40;99.90;;;;;;4941478;29;20025;-72
2021/07/19 01:21:16;;;;;;;10.18;6.95;;;15.40;99.90;;;;;;4877013;29;20099;-72
2021/07/19 01:24:12;;;;;;;10.48;6.85;;;15.40;99.90;;;;;;4877313;28;20028;-72
2021/07/19 01:26:55;;;;;;;11.50;6.13;;;15.40;99.90;;;;;;4877571;29;20540;-72
2021/07/19 01:29:22;;;;;;;9.93;5.97;;;15.40;99.90;;;;;;4876396;29;20029;-74
2021/07/19 01:31:49;;;;;;;10.85;6.68;;;15.40;99.90;;;;;;4877394;29;20021;-71
2021/07/19 01:34:23;;;;;;;8.95;6.82;;;15.30;99.90;;;;;;4876906;29;20060;-72
2021/07/19 01:36:56;;;;;;;16.25;6.85;;;15.30;99.90;;;;;;4876629;29;20087;-71
2021/07/19 01:39:23;;;;;;;9.70;6.60;;;15.30;99.90;;;;;;4876926;29;20049;-71
2021/07/19 01:41:51;;;;;;;9.50;6.43;;;15.30;99.90;;;;;;4876443;29;20029;-72
2021/07/19 01:44:17;;;;;;;10.73;6.55;;;15.30;99.90;;;;;;4876729;28;20441;-77
2021/07/19 01:46:44;;;;;;;8.93;6.90;;;15.30;99.90;;;;;;4877029;29;20067;-71
2021/07/19 01:49:11;;;;;;;7.25;6.30;;;15.30;99.90;;;;;;4876142;28;20117;-73
2021/07/19 01:51:37;;;;;;;10.90;6.55;;;15.20;99.90;;;;;;4877111;28;20470;-72
2021/07/19 01:54:04;;;;;;;9.50;7.15;;;15.20;99.90;;;;;;4876708;28;20128;-74
2021/07/19 01:56:30;;;;;;;9.43;6.80;;;15.20;99.90;;;;;;4875945;29;20037;-75
2021/07/19 01:58:59;;;;;;;7.85;6.22;;;15.10;99.90;;;;;;4940824;29;20118;-71
2021/07/19 02:01:25;;;;;;;8.68;6.35;;;15.10;99.90;;;;;;4940589;29;20044;-73
2021/07/19 02:03:52;;;;;;;10.48;6.32;;;15.10;99.90;;;;;;4876005;28;20033;-72
2021/07/19 02:06:18;;;;;;;8.57;6.13;;;15.00;99.90;;;;;;4940695;29;20371;-72
2021/07/19 02:08:48;;;;;;;7.82;6.30;;;15.00;99.90;;;;;;4940626;29;20035;-72
2021/07/19 02:11:15;;;;;;;7.05;5.72;;;15.00;99.90;;;;;;4875953;29;20043;-71
2021/07/19 02:13:43;;;;;;;8.45;6.05;;;14.90;99.90;;;;;;4876599;28;20017;-78
2021/07/19 02:16:10;;;;;;;8.65;6.55;;;14.90;99.90;;;;;;4940490;29;20496;-78
2021/07/19 02:18:38;;;;;;;8.35;6.65;;;14.90;99.90;;;;;;4875996;29;20496;-74
2021/07/19 02:21:05;;;;;;;10.13;6.72;;;14.90;99.90;;;;;;4877079;28;20076;-72
2021/07/19 02:23:32;;;;;;;11.63;7.30;;;14.90;99.90;;;;;;4940433;29;20029;-72
2021/07/19 02:25:58;;;;;;;7.65;6.72;;;14.90;99.90;;;;;;4940019;29;20021;-71
2021/07/19 02:28:24;;;;;;;10.02;6.70;;;14.90;99.90;;;;;;4940192;29;20486;-71
2021/07/19 02:30:51;;;;;;;8.70;5.90;;;14.80;99.90;;;;;;4875834;29;20027;-71
2021/07/19 02:33:20;;;;;;;9.63;6.65;;;14.80;99.90;;;;;;4940249;28;20025;-71
2021/07/19 02:35:49;;;;;;;8.98;6.63;;;14.80;99.90;;;;;;4940391;29;20422;-71
2021/07/19 02:38:16;;;;;;;12.43;7.35;;;14.80;99.90;;;;;;4939690;29;20117;-71
2021/07/19 02:40:44;;;;;;;8.60;6.68;;;14.80;99.90;;;;;;4876510;29;20033;-71
2021/07/19 02:43:10;;;;;;;8.98;6.82;;;14.70;99.90;;;;;;4939962;28;20474;-70
2021/07/19 02:45:40;;;;;;;7.30;5.88;;;14.80;99.90;;;;;;4875669;29;20029;-71
2021/07/19 02:48:08;;;;;;;8.70;6.50;;;14.70;99.90;;;;;;4876392;28;20040;-70
2021/07/19 02:50:35;;;;;;;9.15;6.47;;;14.70;99.90;;;;;;4878117;29;20021;-76
2021/07/19 02:53:06;;;;;;;10.48;6.88;;;14.70;99.90;;;;;;4878730;28;20051;-71
2021/07/19 02:55:33;;;;;;;10.65;6.93;;;14.70;99.90;;;;;;4943909;29;20033;-71
2021/07/19 02:58:01;;;;;;;9.70;6.53;;;14.70;99.90;;;;;;4879749;29;20100;-72
2021/07/19 03:00:27;;;;;;;10.30;6.60;;;14.70;99.90;;;;;;4878562;28;20057;-73
2021/07/19 03:03:00;;;;;;;8.60;6.47;;;14.80;99.90;;;;;;4879499;28;20040;-71
2021/07/19 03:05:34;;;;;;;13.60;7.43;;;14.80;99.90;;;;;;4943774;29;20029;-71
2021/07/19 03:08:01;;;;;;;9.13;5.95;;;14.70;99.90;;;;;;4878749;29;20033;-71
2021/07/19 03:10:29;;;;;;;8.55;6.00;;;14.70;99.90;;;;;;4879193;29;20036;-71
2021/07/19 03:13:13;;;;;;;8.30;6.72;;;14.70;99.90;;;;;;4879370;28;20108;-72
2021/07/19 03:15:40;;;;;;;9.57;6.40;;;14.60;99.90;;;;;;4879339;29;20084;-71
2021/07/19 03:18:09;;;;;;;7.82;6.32;;;14.60;99.90;;;;;;4879260;28;20021;-71
2021/07/19 03:20:36;;;;;;;8.75;6.82;;;14.60;99.90;;;;;;4943055;29;20033;-71
2021/07/19 03:23:04;;;;;;;7.93;6.22;;;14.50;99.90;;;;;;4878920;28;20017;-71
2021/07/19 03:25:31;;;;;;;7.57;6.15;;;14.50;99.90;;;;;;4878888;29;20021;-71
2021/07/19 03:27:58;;;;;;;7.25;6.25;;;14.50;99.90;;;;;;4878392;28;20025;-71
2021/07/19 03:30:25;;;;;;;9.05;6.82;;;14.50;99.90;;;;;;4878832;29;20030;-71
2021/07/19 03:32:51;;;;;;;8.10;5.93;;;14.50;99.90;;;;;;4879103;28;20434;-72
2021/07/19 03:35:21;;;;;;;11.07;7.03;;;14.50;99.90;;;;;;4877947;28;20033;-76
2021/07/19 03:37:48;;;;;;;10.45;6.75;;;14.50;99.90;;;;;;4879163;29;20033;-71
2021/07/19 03:40:18;;;;;;;11.82;7.07;;;14.50;99.90;;;;;;4943303;29;20025;-71
2021/07/19 03:42:45;;;;;;;9.07;6.47;;;14.50;99.90;;;;;;4878378;29;20041;-71
2021/07/19 03:45:13;;;;;;;9.55;6.78;;;14.50;99.90;;;;;;4943018;29;20160;-73
2021/07/19 03:47:40;;;;;;;9.60;7.47;;;14.50;99.90;;;;;;4878994;29;20545;-71
2021/07/19 03:50:07;;;;;;;11.18;7.25;;;14.50;99.90;;;;;;4942423;29;20366;-71
2021/07/19 03:52:36;;;;;;;9.02;6.65;;;14.50;99.90;;;;;;4943173;29;20025;-71
2021/07/19 03:55:01;;;;;;;9.98;6.53;;;14.50;99.90;;;;;;4878431;28;20088;-71
2021/07/19 03:57:28;;;;;;;9.68;6.65;;;14.50;99.90;;;;;;4942049;29;20869;-82
2021/07/19 03:59:55;;;;;;;10.07;6.63;;;14.50;99.90;;;;;;4943134;29;20029;-71
2021/07/19 04:02:21;;;;;;;11.32;7.10;;;14.50;99.90;;;;;;4876559;29;20040;-70
2021/07/19 04:05:01;;;;;;;10.63;6.32;;;14.50;99.90;;;;;;4942861;29;20025;-72
2021/07/19 04:07:27;;;;;;;13.30;6.88;;;14.50;99.90;;;;;;4878288;29;20036;-72
2021/07/19 04:09:53;;;;;;;8.02;6.30;;;14.60;99.90;;;;;;4942282;29;20037;-71
2021/07/19 04:12:19;;;;;;;10.05;7.35;;;14.60;99.90;;;;;;4942535;29;20109;-72
2021/07/19 04:14:46;;;;;;;8.82;6.70;;;14.60;99.90;;;;;;4878422;28;20469;-71
2021/07/19 04:17:12;;;;;;;9.65;6.93;;;14.70;99.90;;;;;;4877335;29;20067;-71
2021/07/19 04:19:38;;;;;;;9.63;7.70;;;14.70;99.90;;;;;;4878619;28;20104;-71
2021/07/19 04:22:04;;;;;;;8.80;7.03;;;14.70;99.90;;;;;;4942807;29;20116;-71
2021/07/19 04:24:31;;;;;;;11.30;6.70;;;14.70;99.90;;;;;;4877412;28;20044;-71
2021/07/19 04:26:57;;;;;;;12.23;6.68;;;14.70;99.90;;;;;;4878410;29;20028;-71
2021/07/19 04:29:24;;;;;;;11.57;7.80;;;14.70;99.90;;;;;;4877893;28;20021;-71
2021/07/19 04:31:57;;;;;;;14.68;7.07;;;14.80;99.90;;;;;;4877490;29;20025;-72
2021/07/19 04:34:33;;;;;;;10.45;7.38;;;14.80;99.90;;;;;;4877749;28;20112;-76
2021/07/19 04:37:02;;;;;;;12.75;7.60;;;14.80;99.90;;;;;;4942273;29;20041;-71
2021/07/19 04:39:28;;;;;;;9.50;6.72;;;14.80;99.90;;;;;;4877043;28;20492;-71
2021/07/19 04:41:54;;;;;;;7.93;5.78;;;14.90;99.90;;;;;;4878034;29;20100;-71
2021/07/19 04:44:19;;;;;;;8.50;6.88;;;14.90;99.90;;;;;;4890109;29;20021;-80
2021/07/19 04:46:45;;;;;;;10.15;6.80;;;14.90;99.90;;;;;;4895840;29;20044;-71
2021/07/19 04:49:11;;;;;;;9.45;6.95;;;14.90;99.90;;;;;;4892489;29;20024;-72
2021/07/19 04:51:37;;;;;;;13.63;7.55;;;14.90;99.90;;;;;;4877800;28;20033;-80
2021/07/19 04:54:06;;;;;;;9.52;6.63;;;15.00;99.90;;;;;;4877758;28;20041;-71
2021/07/19 04:56:35;;;;;;;7.63;6.18;;;15.10;99.90;;;;;;4877512;28;20048;-71
2021/07/19 04:59:03;;;;;;;8.98;6.68;;;15.20;99.90;;;;;;4877167;28;20064;-71
2021/07/19 05:01:30;;;;;;;7.90;6.18;;;15.20;99.90;;;;;;4886928;28;20029;-73
2021/07/19 05:03:58;;;;;;;9.85;6.97;;;15.30;99.90;;;;;;4877588;28;20389;-71
2021/07/19 05:06:25;;;;;;;6.68;5.97;;;15.40;99.90;;;;;;4876749;29;20029;-71
2021/07/19 05:08:51;;;;;;;7.90;6.40;;;15.50;99.90;;;;;;4941870;29;20112;-74
2021/07/19 05:11:19;;;;;;;9.65;6.55;;;15.70;99.90;;;;;;4877169;28;20448;-71
2021/07/19 05:13:45;;;;;;;7.22;5.35;;;16.00;99.90;;;;;;4951812;28;20386;-70
2021/07/19 05:16:11;;;;;;;8.63;5.72;;;16.20;99.90;;;;;;4889432;29;20091;-70
2021/07/19 05:18:39;;;;;;;9.73;5.68;;;16.40;99.90;;;;;;4896310;28;20473;-71
2021/07/19 05:21:05;;;;;;;8.35;6.05;;;16.50;99.90;;;;;;4875606;29;20033;-70
2021/07/19 05:23:31;;;;;;;7.38;5.72;;;16.70;99.90;;;;;;4877054;29;20033;-74
2021/07/19 05:25:56;;;;;;;9.00;5.70;;;16.80;99.90;;;;;;4877572;29;20437;-74
2021/07/19 05:28:22;;;;;;;10.40;5.63;;;16.90;99.90;;;;;;4956553;28;20116;-70
2021/07/19 05:30:51;;;;;;;8.00;5.88;;;17.00;99.90;;;;;;4877347;29;20029;-70
2021/07/19 05:33:18;;;;;;;11.80;5.75;;;17.10;99.90;;;;;;4941225;29;20032;-70
2021/07/19 05:35:44;;;;;;;9.65;6.63;;;17.10;99.90;;;;;;4940684;29;20033;-70
2021/07/19 05:38:09;;;;;;;9.23;6.60;;;17.10;99.90;;;;;;4940998;29;20104;-72
2021/07/19 05:40:36;;;;;;;8.70;6.43;;;17.20;99.90;;;;;;4877195;29;20536;-72
2021/07/19 05:43:02;;;;;;;14.18;6.68;;;17.20;99.90;;;;;;4876496;29;20025;-70
2021/07/19 05:45:28;;;;;;;12.23;6.90;;;17.20;99.90;;;;;;4876980;29;20500;-70
2021/07/19 05:47:54;;;;;;;11.77;6.35;;;17.30;99.90;;;;;;4876307;29;20029;-70
2021/07/19 05:50:20;;;;;;;9.30;7.05;;;17.40;99.90;;;;;;4877576;29;20029;-70
2021/07/19 05:52:46;;;;;;;10.07;6.40;;;17.60;99.90;;;;;;4940928;29;20056;-69
2021/07/19 05:55:12;;;;;;;7.78;5.78;;;17.70;99.90;;;;;;4876051;28;20120;-69
2021/07/19 05:57:39;;;;;;;7.93;6.60;;;17.80;99.90;;;;;;4941290;29;20152;-68
2021/07/19 06:00:11;;;;;;;9.25;6.20;;;17.90;99.90;;;;;;4888577;28;20083;-69
2021/07/19 06:02:37;;;;;;;8.63;5.43;;;18.00;99.90;;;;;;4892481;29;20040;-69
2021/07/19 06:05:04;;;;;;;9.35;5.43;;;18.00;99.90;;;;;;4895305;29;20492;-81
2021/07/19 06:07:29;;;;;;;8.77;5.50;;;18.10;99.90;;;;;;4878364;28;20123;-68
2021/07/19 06:09:55;;;;;;;7.90;5.90;;;18.20;99.90;;;;;;4884097;28;20111;-77
2021/07/19 06:12:21;;;;;;;7.75;5.60;;;18.30;99.90;;;;;;4940734;28;20129;-68
2021/07/19 06:14:46;;;;;;;10.50;6.65;;;18.40;99.90;;;;;;4948160;28;20078;-70
2021/07/19 06:17:15;;;;;;;8.07;7.00;;;18.40;99.90;;;;;;4884281;28;20047;-73
2021/07/19 06:19:41;;;;;;;8.23;6.03;;;18.40;99.90;;;;;;4892120;29;20057;-68
2021/07/19 06:22:10;;;;;;;7.82;6.03;;;18.40;99.90;;;;;;4881998;29;20040;-75
2021/07/19 06:24:37;;;;;;;9.40;6.47;;;18.50;99.90;;;;;;4875908;28;20103;-71
2021/07/19 06:27:04;;;;;;;9.32;5.45;;;18.50;99.90;;;;;;4880094;28;20025;-69
2021/07/19 06:29:30;;;;;;;11.23;6.57;;;18.60;99.90;;;;;;4888615;29;20021;-73
2021/07/19 06:31:55;;;;;;;9.30;6.20;;;18.70;99.90;;;;;;4884580;28;20068;-68
2021/07/19 06:34:21;;;;;;;8.27;5.65;;;18.60;99.90;;;;;;4887508;29;20039;-72
2021/07/19 06:36:46;;;;;;;7.93;5.57;;;18.60;99.90;;;;;;4875148;28;20041;-73
2021/07/19 06:39:12;;;;;;;9.35;6.15;;;18.60;99.90;;;;;;4889551;28;20099;-80
2021/07/19 06:41:38;;;;;;;13.15;6.47;;;18.70;99.90;;;;;;4893298;29;20123;-82
2021/07/19 06:44:04;;;;;;;11.20;6.22;;;18.90;99.90;;;;;;4893187;29;20025;-70
2021/07/19 06:46:30;;;;;;;10.95;6.32;;;19.20;99.90;;;;;;4892110;29;20092;-70
2021/07/19 06:48:55;;;;;;;11.25;6.70;;;19.40;99.90;;;;;;4888768;29;20037;-76
2021/07/19 06:51:21;;;;;;;10.35;6.28;;;19.40;99.90;;;;;;4889090;29;20700;-75
2021/07/19 06:53:46;;;;;;;11.40;5.72;;;19.50;99.90;;;;;;4888251;29;20041;-73
2021/07/19 06:56:12;;;;;;;11.43;6.20;;;19.60;99.90;;;;;;4944668;28;20041;-72
2021/07/19 06:58:37;;;;;;;9.52;6.50;;;19.60;99.90;;;;;;4875539;29;20029;-69
2021/07/19 07:01:03;;;;;;;12.15;5.70;;;19.70;99.90;;;;;;4874398;29;20040;-68
2021/07/19 07:03:29;;;;;;;12.88;6.30;;;19.80;99.90;;;;;;4875505;29;20047;-70
2021/07/19 07:05:54;;;;;;;12.85;5.85;;;19.80;99.90;;;;;;4948714;28;20072;-73
2021/07/19 07:08:20;;;;;;;11.32;6.03;;;19.80;99.90;;;;;;4882255;29;20024;-70
2021/07/19 07:10:45;;;;;;;12.52;6.63;;;19.90;99.90;;;;;;4888836;29;20024;-79
2021/07/19 07:13:11;;;;;;;8.18;5.30;;;20.00;99.90;;;;;;4891017;29;20035;-71
2021/07/19 07:15:38;;;;;;;10.52;6.45;;;20.10;99.90;;;;;;4874819;29;20026;-71
2021/07/19 07:18:08;;;;;;;7.50;5.78;;;20.20;99.90;;;;;;4874864;29;20100;-80
2021/07/19 07:20:34;;;;;;;12.82;6.63;;;20.10;99.90;;;;;;4938537;29;20029;-81
2021/07/19 07:23:00;;;;;;;12.30;6.55;;;20.10;99.90;;;;;;4938734;29;20101;-78
2021/07/19 07:25:26;;;;;;;10.80;6.38;;;20.20;99.90;;;;;;4939195;29;20111;-84
2021/07/19 07:27:52;;;;;;;10.48;6.35;;;20.30;99.90;;;;;;4874706;29;20112;-71
2021/07/19 07:30:18;;;;;;;9.23;6.40;;;20.40;99.90;;;;;;4957411;28;20047;-70
2021/07/19 07:32:44;;;;;;;10.85;5.88;;;20.40;99.90;;;;;;4893378;29;20021;-71
2021/07/19 07:35:10;;;;;;;9.68;6.32;;;20.30;99.90;;;;;;4892407;29;20036;-71
2021/07/19 07:37:39;;;;;;;7.85;6.00;;;20.40;99.90;;;;;;4896468;29;20401;-70
2021/07/19 07:40:08;;;;;;;9.05;6.35;;;20.50;99.90;;;;;;4884059;29;20033;-70
2021/07/19 07:42:34;;;;;;;8.18;6.10;;;20.60;99.90;;;;;;4895649;29;20028;-75
2021/07/19 07:45:00;;;;;;;9.30;6.07;;;20.70;99.90;;;;;;4896536;29;20072;-83
2021/07/19 07:47:26;;;;;;;9.18;6.65;;;20.70;99.90;;;;;;4960619;28;20127;-69
2021/07/19 07:49:52;;;;;;;8.93;6.10;;;20.70;99.90;;;;;;4893315;29;20116;-70
2021/07/19 07:52:18;;;;;;;9.02;5.72;;;20.70;99.90;;;;;;4891593;28;20032;-70
2021/07/19 07:54:44;;;;;;;6.85;5.90;;;20.80;99.90;;;;;;4883458;29;20060;-71
2021/07/19 07:57:10;;;;;;;7.28;5.70;;;21.00;99.90;;;;;;4892940;29;20044;-71
2021/07/19 07:59:37;;;;;;;8.02;5.93;;;21.10;99.90;;;;;;4895387;29;20045;-70
2021/07/19 08:02:03;;;;;;;8.40;5.90;;;21.10;99.90;;;;;;4895569;29;20095;-79
2021/07/19 08:04:29;;;;;;;6.90;6.20;;;21.10;99.90;;;;;;4881347;29;20036;-70
2021/07/19 08:06:59;;;;;;;8.43;6.13;;;21.10;99.90;;;;;;4896001;29;20033;-78
2021/07/19 08:09:25;;;;;;;7.77;5.63;;;21.30;99.90;;;;;;4960681;28;20032;-71
2021/07/19 08:11:51;;;;;;;8.02;6.20;;;21.40;99.90;;;;;;4960386;28;20028;-71
2021/07/19 08:14:17;;;;;;;6.95;5.82;;;21.60;99.90;;;;;;4892625;28;20484;-84
2021/07/19 08:16:42;;;;;;;10.05;5.80;;;21.90;99.90;;;;;;4893409;29;20496;-71
2021/07/19 08:19:10;;;;;;;6.95;5.80;;;22.10;99.90;;;;;;4949931;28;20028;-70
2021/07/19 08:21:37;;;;;;;9.15;6.28;;;22.20;99.90;;;;;;4882282;29;20099;-75
2021/07/19 08:24:03;;;;;;;6.75;5.93;;;22.20;99.90;;;;;;4888310;29;20477;-70
2021/07/19 08:26:29;;;;;;;7.20;5.97;;;22.30;99.90;;;;;;4895647;29;20545;-78
2021/07/19 08:28:55;;;;;;;10.02;7.13;;;22.50;99.90;;;;;;4895169;29;20120;-71
2021/07/19 08:31:23;;;;;;;8.73;6.25;;;22.50;99.90;;;;;;4895873;29;20112;-91
2021/07/19 08:33:49;;;;;;;6.88;5.63;;;22.50;99.90;;;;;;4941536;28;20041;-69
2021/07/19 08:36:15;;;;;;;9.07;6.35;;;22.50;99.90;;;;;;4877088;28;20405;-70
2021/07/19 08:38:40;;;;;;;6.40;5.78;;;22.40;99.90;;;;;;4879291;28;20388;-71
2021/07/19 08:41:07;;;;;;;7.35;6.43;;;22.30;99.90;;;;;;4959908;28;20107;-69
2021/07/19 08:43:34;;;;;;;9.57;6.82;;;22.20;99.90;;;;;;4887913;29;20053;-77
2021/07/19 08:46:01;;;;;;;8.27;6.40;;;22.10;99.90;;;;;;4979773;28;20119;-69
2021/07/19 08:48:26;;;;;;;9.32;6.22;;;22.00;99.90;;;;;;4913535;29;20021;-71
2021/07/19 08:50:53;;;;;;;8.50;6.18;;;22.00;99.90;;;;;;4903095;29;20540;-70
2021/07/19 08:53:18;;;;;;;8.98;7.00;;;22.00;99.90;;;;;;4959608;28;20067;-70
2021/07/19 08:55:49;;;;;;;10.07;7.38;;;22.10;99.90;;;;;;4877426;29;20067;-69
2021/07/19 08:58:15;;;;;;;8.57;6.85;;;22.00;99.90;;;;;;4892152;29;20067;-83
2021/07/19 09:00:41;;;;;;;9.77;7.80;;;21.90;99.90;;;;;;4896841;28;20421;-74
2021/07/19 09:03:06;;;;;;;8.80;6.50;;;21.80;99.90;;;;;;4882991;29;20037;-74
2021/07/19 09:05:32;;;;;;;11.43;6.88;;;21.70;99.90;;;;;;4940708;29;20474;-77
2021/07/19 09:07:58;;;;;;;8.23;6.45;;;21.80;99.90;;;;;;4876294;29;20556;-76
2021/07/19 09:10:26;;;;;;;8.55;6.55;;;22.00;99.90;;;;;;4946887;28;20115;-83
2021/07/19 09:12:52;;;;;;;11.10;7.35;;;22.10;99.90;;;;;;4895342;29;20040;-70
2021/07/19 09:15:35;;;;;;;7.72;6.57;;;22.10;99.90;;;;;;4959011;28;20099;-76
2021/07/19 09:18:04;;;;;;;9.43;7.30;;;22.00;99.90;;;;;;4894083;29;20037;-70
2021/07/19 09:20:39;;;;;;;9.40;6.60;;;22.10;99.90;;;;;;4951569;28;20029;-70
2021/07/19 09:23:06;;;;;;;7.53;6.75;;;22.30;99.90;;;;;;4876371;29;20025;-72
2021/07/19 09:25:32;;;;;;;8.00;6.55;;;22.50;99.90;;;;;;4885253;29;20033;-70
2021/07/19 09:28:06;;;;;;;7.25;6.55;;;22.60;99.90;;;;;;4893557;29;20025;-81
2021/07/19 09:30:33;;;;;;;8.75;7.03;;;22.60;99.70;;;;;;4893070;28;20103;-74
2021/07/19 09:33:05;;;;;;;9.65;7.45;;;22.60;99.90;;;;;;4892574;29;20036;-70
2021/07/19 09:35:31;;;;;;;;;;;22.60;99.90;;;;;;4894832;29;20389;-72
2021/07/19 09:38:07;;;;;;;8.32;6.82;;;22.80;99.90;;;;;;4885237;29;19911;-71
2021/07/19 09:40:37;;;;;;;7.20;6.45;;;22.90;99.70;;;;;;4883815;29;20076;-70
2021/07/19 09:43:32;;;;;;;9.48;7.13;;;22.90;99.70;;;;;;4879517;28;20041;-69
2021/07/19 09:46:02;;;;;;;8.20;6.97;;;22.70;99.60;;;;;;4883297;28;20390;-69
2021/07/19 09:48:28;;;;;;;9.27;7.22;;;22.50;99.90;;;;;;4940110;29;20025;-76
2021/07/19 09:50:54;;;;;;;8.85;6.68;;;22.20;99.90;;;;;;4877035;28;20083;-85
2021/07/19 09:53:46;;;;;;;13.65;7.22;;;21.80;99.90;;;;;;4939083;28;20045;-78
2021/07/19 09:56:15;;;;;;;9.55;7.05;;;21.60;99.90;;;;;;4889551;29;20060;-77
2021/07/19 09:59:05;;;;;;;8.63;6.80;;;21.30;99.90;;;;;;4885354;28;20021;-86
2021/07/19 10:01:34;;;;;;;9.23;7.20;;;21.30;99.90;;;;;;4956851;28;20072;-71
2021/07/19 10:04:07;;;;;;;12.45;6.93;;;21.50;99.90;;;;;;4891785;29;20566;-72
2021/07/19 10:06:34;;;;;;;10.18;7.35;;;21.80;99.90;;;;;;4880855;29;20033;-85
2021/07/19 10:09:00;;;;;;;11.07;7.20;;;22.20;99.90;;;;;;4893738;29;20429;-71
2021/07/19 10:11:34;;;;;;;8.65;7.63;;;22.60;99.90;;;;;;4945739;28;20036;-70
2021/07/19 10:14:01;;;;;;;9.10;6.85;;;22.70;99.90;;;;;;4959359;28;20032;-75
2021/07/19 10:16:41;;;;;;;8.25;7.15;;;22.70;99.90;;;;;;4941321;28;20096;-77
2021/07/19 10:19:08;;;;;;;10.77;7.30;;;22.80;99.90;;;;;;4939900;29;20033;-69
2021/07/19 10:21:34;;;;;;;9.57;6.93;;;22.80;99.90;;;;;;4876055;28;20064;-70
2021/07/19 10:24:06;;;;;;;10.23;8.20;;;22.90;99.90;;;;;;4878974;28;20108;-69
2021/07/19 10:26:33;;;;;;;9.63;7.30;;;23.10;99.90;;;;;;4876917;28;20524;-70
2021/07/19 10:28:59;;;;;;;11.50;8.02;;;23.10;99.80;;;;;;4876350;28;20045;-71
2021/07/19 10:31:26;;;;;;;9.60;7.78;;;23.20;99.90;;;;;;4877891;28;20036;-70
2021/07/19 10:33:55;;;;;;;9.35;7.50;;;23.50;98.90;;;;;;4877109;28;20056;-69
2021/07/19 10:36:47;;;;;;;10.38;7.55;;;23.70;98.20;;;;;;4876533;28;20060;-69
2021/07/19 10:39:23;;;;;;;10.05;8.07;;;23.90;98.10;;;;;;4883853;29;20081;-68
2021/07/19 10:42:01;;;;;;;8.95;7.30;;;24.00;97.20;;;;;;4940258;29;20506;-69
2021/07/19 10:44:30;;;;;;;9.90;7.15;;;24.10;97.00;;;;;;4940637;29;20033;-70
2021/07/19 10:46:57;;;;;;;11.30;8.38;;;24.10;97.50;;;;;;4877185;28;20104;-69
2021/07/19 10:49:29;;;;;;;8.43;7.28;;;23.90;97.00;;;;;;4875949;28;20087;-69
2021/07/19 10:51:54;;;;;;;8.93;7.75;;;23.50;96.80;;;;;;4877090;28;20021;-69
2021/07/19 10:54:23;;;;;;;10.73;7.82;;;23.20;97.20;;;;;;4876230;28;20172;-71
2021/07/19 10:56:55;;;;;;;13.48;8.00;;;23.20;97.70;;;;;;4875976;28;20084;-69
2021/07/19 10:59:30;;;;;;;9.98;7.22;;;23.30;97.00;;;;;;4876590;28;20022;-69
2021/07/19 11:01:57;;;;;;;9.55;7.25;;;23.30;97.50;;;;;;4940564;29;20056;-69
2021/07/19 11:04:23;;;;;;;11.65;7.75;;;23.30;97.40;;;;;;4875364;28;20083;-69
2021/07/19 11:06:56;;;;;;;10.05;7.82;;;23.60;96.90;;;;;;4876680;28;20037;-70
2021/07/19 11:09:34;;;;;;;15.48;8.05;;;23.70;96.90;;;;;;4941624;29;20462;-69
2021/07/19 11:12:07;;;;;;;8.48;7.00;;;23.90;96.50;;;;;;4879245;28;20037;-69
2021/07/19 11:14:46;;;;;;;9.55;7.40;;;24.10;96.70;;;;;;4879812;28;20029;-69
2021/07/19 11:17:12;;;;;;;8.13;7.20;;;24.10;97.10;;;;;;4879308;28;20116;-73
2021/07/19 11:19:41;;;;;;;8.80;7.53;;;24.10;97.30;;;;;;4880599;28;20049;-70
2021/07/19 11:22:12;;;;;;;8.52;7.60;;;24.10;97.80;;;;;;4880486;28;20040;-69
2021/07/19 11:24:49;;;;;;;9.60;7.72;;;24.00;97.50;;;;;;4879357;28;20025;-69
2021/07/19 11:27:22;;;;;;;9.25;8.02;;;23.80;97.40;;;;;;4879512;29;20029;-69
2021/07/19 11:30:05;;;;;;;8.10;7.30;;;23.90;96.90;;;;;;4879997;28;20029;-69
2021/07/19 11:32:33;;;;;;;9.60;8.13;;;24.20;96.80;;;;;;4943401;29;20039;-69
2021/07/19 11:35:14;;;;;;;10.40;7.68;;;24.40;95.40;;;;;;4879373;28;20056;-73
2021/07/19 11:37:42;;;;;;;9.60;7.60;;;24.40;95.20;;;;;;4879397;28;20048;-69
2021/07/19 11:40:10;;;;;;;9.93;8.45;;;24.50;95.90;;;;;;4879839;28;20033;-69
2021/07/19 11:42:42;;;;;;;11.20;8.25;;;24.60;95.10;;;;;;4879576;28;20037;-69
2021/07/19 11:45:14;;;;;;;8.18;7.47;;;24.70;95.10;;;;;;4878611;28;20025;-69
2021/07/19 11:47:43;;;;;;;10.10;8.23;;;24.70;94.80;;;;;;4880460;28;20385;-69
2021/07/19 11:50:10;;;;;;;10.80;7.93;;;24.70;94.70;;;;;;4945108;29;20411;-69
2021/07/19 11:52:38;;;;;;;9.32;8.10;;;24.80;94.60;;;;;;4880621;28;20005;-69
2021/07/19 11:55:05;;;;;;;10.00;8.38;;;24.70;94.10;;;;;;4883676;28;20138;-69
2021/07/19 11:57:40;;;;;;;9.80;8.80;;;24.70;94.20;;;;;;4880286;28;20041;-69
2021/07/19 12:00:06;;;;;;;9.60;8.20;;;24.70;93.80;;;;;;4943326;29;20112;-69
2021/07/19 12:02:32;;;;;;;10.20;8.65;;;24.70;94.10;;;;;;4879782;28;20385;-69
2021/07/19 12:04:58;;;;;;;9.90;7.82;;;24.60;94.20;;;;;;4879288;28;20093;-69
2021/07/19 12:07:25;;;;;;;10.48;8.82;;;24.50;93.80;;;;;;4942733;29;20036;-69
2021/07/19 12:10:01;;;;;;;10.32;8.63;;;24.30;94.40;;;;;;4879598;28;20017;-69
2021/07/19 12:12:27;;;;;;;10.35;8.60;;;24.10;94.10;;;;;;4943296;29;20029;-69
2021/07/19 12:15:00;;;;;;;11.52;9.52;;;23.90;94.30;;;;;;4878584;28;20029;-69
2021/07/19 12:17:30;;;;;;;11.27;8.13;;;23.80;94.60;;;;;;4879005;29;20037;-69
2021/07/19 12:19:56;;;;;;;9.20;8.25;;;23.90;93.90;;;;;;4878625;28;20068;-69
2021/07/19 12:22:22;;;;;;;10.50;8.43;;;24.00;94.10;;;;;;4877927;28;20026;-69
2021/07/19 12:24:53;;;;;;;10.15;8.25;;;24.00;94.00;;;;;;4879046;28;20474;-69
2021/07/19 12:27:19;;;;;;;12.75;9.60;;;24.00;93.70;;;;;;4877959;28;20096;-69
2021/07/19 12:29:44;;;;;;;10.10;8.65;;;23.90;94.00;;;;;;4944430;29;20033;-69
2021/07/19 12:32:11;;;;;;;11.32;8.77;;;23.80;94.30;;;;;;4943497;29;20025;-69
2021/07/19 12:34:41;;;;;;;10.35;8.27;;;23.70;94.50;;;;;;4879151;28;20036;-69
2021/07/19 12:37:25;;;;;;;10.63;8.40;;;23.60;95.00;;;;;;4943291;29;20092;-69
2021/07/19 12:39:57;;;;;;;10.05;7.55;;;23.80;95.50;;;;;;4879352;28;20374;-69
2021/07/19 12:42:29;;;;;;;10.05;9.00;;;24.10;94.70;;;;;;4878166;28;20542;-69
2021/07/19 12:44:57;;;;;;;9.60;8.60;;;24.40;94.60;;;;;;4879336;28;20045;-69
2021/07/19 12:47:25;;;;;;;11.95;8.30;;;24.70;94.30;;;;;;4879405;28;20063;-69